• Join FlightAware (Why Join?)
  • Login
  • US Flag 
11:22PM EDT


 

Airport Tracker/Info


-or-


 

Live Flight TrackerFlight Track Log ✈ N444WR ✈ 08-May-2014 ✈ KFYE - KTLH

Flight Track Log - Related Links

Times and Time Zones

All times are in EDT time to prevent confusion due to time zone crossing. See the N444WR flight status page for this flight to view local times or setup timezone preferences in your user account.

Time Position Orientation Groundspeed Altitude Reporting Facility
EDT Latitude Longitude Course Direction KTS MPH feet Rate Location/Type
05:58PM 35.1333 -89.3167 129° Southeast 112 129 3,400  Level KMEM
05:59PM 35.1156 -89.2900 129° Southeast 114 131 4,100 660 Climbing Memphis Center
06:00PM 35.0922 -89.2633 137° Southeast 114 131 4,800 720 Climbing Memphis Center
06:01PM 35.0619 -89.2303 138° Southeast 117 135 5,600 720 Climbing Memphis Center
06:02PM 35.0361 -89.2022 138° Southeast 120 138 6,300 600 Climbing Memphis Center
06:03PM 35.0094 -89.1719 137° Southeast 125 144 6,900 300 Climbing Memphis Center
06:04PM 34.9792 -89.1361 136° Southeast 143 165 7,000  Climbing Memphis Center
06:05PM 34.9428 -89.0989 140° Southeast 163 188 7,000 -60 Level Memphis Center
06:06PM 34.9103 -89.0583 134° Southeast 164 189 6,900 -60 Descending Memphis Center
06:07PM 34.8678 -89.0139 139° Southeast 165 190 6,900  Level Memphis Center
06:08PM 34.8344 -88.9772 138° Southeast 165 190 7,000  Climbing Memphis Center
06:09PM 34.8011 -88.9400 137° Southeast 165 190 7,000  Level Memphis Center
06:10PM 34.7669 -88.9031 138° Southeast 164 189 7,000  Level Memphis Center
06:11PM 34.7328 -88.8653 138° Southeast 164 189 7,100  Climbing Memphis Center
06:12PM 34.6992 -88.8272 137° Southeast 164 189 7,000 -60 Descending Memphis Center
06:13PM 34.6653 -88.7894 137° Southeast 164 189 7,000  Level Memphis Center
06:14PM 34.6253 -88.7456 138° Southeast 164 189 7,100  Climbing Memphis Center
06:16PM 34.5967 -88.7139 138° Southeast 161 185 7,000 -60 Descending Memphis Center
06:17PM 34.5642 -88.6786 138° Southeast 160 184 7,000  Level Memphis Center
06:18PM 34.5264 -88.6361 137° Southeast 158 182 7,100  Climbing Memphis Center
06:19PM 34.4947 -88.6017 138° Southeast 157 181 7,100  Level Memphis Center
06:20PM 34.4617 -88.5667 139° Southeast 157 181 7,100  Level Memphis Center
06:20PM 34.4439 -88.5492 141° Southeast 156 180 7,100 -120 Level Memphis Center
06:21PM 34.4300 -88.5303 132° Southeast 157 181 7,000  Descending Memphis Center
06:21PM 34.4169 -88.5164 139° Southeast 160 184 7,100 -120 Climbing Memphis Center
06:22PM 34.3978 -88.4947 137° Southeast 157 181 6,900 -120 Descending Memphis Center
06:23PM 34.3644 -88.4592 139° Southeast 157 181 6,900  Level Memphis Center
06:24PM 34.3256 -88.4172 138° Southeast 157 181 6,900  Level Memphis Center
06:25PM 34.2942 -88.3817 137° Southeast 157 181 6,900  Level Memphis Center
06:26PM 34.2622 -88.3472 138° Southeast 157 181 6,900  Level Memphis Center
06:27PM 34.2297 -88.3111 137° Southeast 157 181 6,900  Level Memphis Center
06:28PM 34.1978 -88.2772 139° Southeast 157 181 7,000  Climbing Memphis Center
06:28PM 34.1872 -88.2675 143° Southeast 158 182 6,900 -120 Descending Memphis Center
06:29PM 34.1653 -88.2411 135° Southeast 157 181 6,900  Level Memphis Center
06:30PM 34.1267 -88.1983 137° Southeast 157 181 6,900  Level Memphis Center
06:31PM 34.0936 -88.1642 139° Southeast 157 181 6,900  Level Memphis Center
06:32PM 34.0619 -88.1297 138° Southeast 157 181 6,900  Level Memphis Center
06:33PM 34.0306 -88.0972 139° Southeast 154 177 6,900  Level Memphis Center
06:34PM 33.9975 -88.0611 138° Southeast 155 178 7,000  Climbing Memphis Center
06:35PM 33.9656 -88.0275 139° Southeast 155 178 6,900  Descending Memphis Center
06:35PM 33.9664 -88.0253 66° East 154 177 7,000  Climbing Memphis Center
06:36PM 33.9319 -87.9900 140° Southeast 156 180 6,900  Descending Memphis Center
06:36PM 33.9278 -87.9839 129° Southeast 155 178 7,000 60 Climbing Memphis Center
06:37PM 33.8944 -87.9497 140° Southeast 155 178 7,000 -60 Level Memphis Center
06:38PM 33.8692 -87.9228 138° Southeast 153 176 6,900 60 Descending Memphis Center
06:38PM 33.8633 -87.9153 133° Southeast 155 178 7,100 60 Climbing Memphis Center
06:39PM 33.8317 -87.8817 139° Southeast 155 178 7,000 -60 Descending Memphis Center
06:40PM 33.8003 -87.8478 138° Southeast 155 178 7,000  Level Memphis Center
06:41PM 33.7694 -87.8142 138° Southeast 154 177 7,000  Level Memphis Center
06:42PM 33.7328 -87.7750 138° Southeast 152 175 7,000  Level Memphis Center
06:43PM 33.7017 -87.7425 139° Southeast 150 173 7,000  Level Memphis Center
06:44PM 33.6722 -87.7103 138° Southeast 150 173 7,000  Level Memphis Center
06:45PM 33.6425 -87.6778 138° Southeast 148 170 7,000  Level Memphis Center
06:46PM 33.6122 -87.6461 139° Southeast 148 170 7,000  Level Memphis Center
06:47PM 33.5825 -87.6136 138° Southeast 148 170 7,000  Level Memphis Center
06:49PM 33.5453 -87.5753 139° Southeast 148 170 7,000  Level Memphis Center
06:50PM 33.5156 -87.5422 137° Southeast 148 170 7,000  Level Memphis Center
06:51PM 33.4844 -87.5111 140° Southeast 148 170 7,000  Level Memphis Center
06:52PM 33.4539 -87.4783 138° Southeast 148 170 7,000  Level Memphis Center
06:53PM 33.4242 -87.4461 138° Southeast 147 169 7,000  Level Memphis Center
06:54PM 33.3953 -87.4139 137° Southeast 147 169 7,000  Level Memphis Center
06:55PM 33.3589 -87.3758 139° Southeast 147 169 7,000  Level Memphis Center
06:56PM 33.3289 -87.3444 139° Southeast 147 169 7,000  Level Memphis Center
06:57PM 33.2981 -87.3122 139° Southeast 147 169 7,000  Level Memphis Center
06:58PM 33.2531 -87.2706 142° Southeast 147 169 7,000  Level Atlanta Center
06:59PM 33.2267 -87.2422 138° Southeast 144 166 7,100  Climbing Atlanta Center
07:00PM 33.2044 -87.2167 136° Southeast 146 168 7,000 -60 Descending Atlanta Center
07:01PM 33.1736 -87.1906 145° Southeast 151 174 7,000  Level Atlanta Center
07:02PM 33.1408 -87.1647 147° Southeast 146 168 7,000  Level Atlanta Center
07:03PM 33.1106 -87.1314 137° Southeast 146 168 7,100  Climbing Atlanta Center
07:04PM 33.0800 -87.1031 142° Southeast 146 168 7,000 -60 Descending Atlanta Center
07:05PM 33.0472 -87.0747 144° Southeast 146 168 7,000  Level Atlanta Center
07:06PM 33.0144 -87.0436 141° Southeast 146 168 7,000  Level Atlanta Center
07:07PM 32.9839 -87.0153 142° Southeast 146 168 7,000  Level Atlanta Center
07:08PM 32.9511 -86.9872 144° Southeast 146 168 7,100  Climbing Atlanta Center
07:09PM 32.9206 -86.9589 142° Southeast 146 168 7,100  Level Atlanta Center
07:10PM 32.8881 -86.9256 139° Southeast 146 168 7,100 -60 Level Atlanta Center
07:11PM 32.8572 -86.8975 143° Southeast 146 168 7,000  Descending Atlanta Center
07:12PM 32.8247 -86.8667 141° Southeast 146 168 7,100  Climbing Atlanta Center
07:13PM 32.7919 -86.8383 144° Southeast 146 168 7,100 -120 Level Atlanta Center
07:14PM 32.7614 -86.8028 136° Southeast 156 180 6,900 -60 Descending Atlanta Center
07:18PM 32.6283 -86.6828 143° Southeast 147 169 7,000  Climbing Atlanta Center
07:22PM 32.4950 -86.5681 144° Southeast 150 173 7,000  Level Atlanta Center
07:26PM 32.3597 -86.4536 137° Southeast 154 177 7,000  Level Atlanta Center
07:30PM 32.2181 -86.3294 138° Southeast 152 175 7,000  Level Atlanta Center
07:34PM 32.0789 -86.2247 137° Southeast 155 178 7,100  Climbing Jacksonville Center
07:34PM 32.0708 -86.2169 141° Southeast 155 178 7,100  Level Jacksonville Center
07:35PM 32.1020 -86.1769 138° Southeast  Level FlightAware Approximate
07:35PM 32.0361 -86.1839 141° Southeast 155 178 7,100  Level Jacksonville Center
07:36PM 32.0058 -86.1436 132° Southeast 157 181 7,100  Level Jacksonville Center
07:37PM 31.9753 -86.1106 137° Southeast 156 180 7,100 -60 Level Jacksonville Center
07:38PM 31.9428 -86.0753 137° Southeast 152 175 7,000 -60 Descending Jacksonville Center
07:39PM 31.9659 -86.0461 137° Southeast  Level Estimated
07:39PM 31.9144 -86.0425 136° Southeast 154 177 7,000  Level Jacksonville Center
07:40PM 31.8819 -86.0022 134° Southeast 152 175 7,000  Level Jacksonville Center
07:41PM 31.8475 -85.9667 139° Southeast 151 174 7,000  Level Jacksonville Center
07:42PM 31.8189 -85.9342 136° Southeast 151 174 7,000  Level Jacksonville Center
07:43PM 31.7886 -85.8989 135° Southeast 148 170 7,000  Level Jacksonville Center
07:44PM 31.7600 -85.8661 136° Southeast 148 170 7,000  Level Jacksonville Center
07:45PM 31.7317 -85.8333 135° Southeast 148 170 7,000  Level Jacksonville Center
07:46PM 31.7011 -85.8008 138° Southeast 147 169 7,000  Level Jacksonville Center
07:47PM 31.6725 -85.7681 136° Southeast 149 171 7,000  Level Jacksonville Center
07:48PM 31.6442 -85.7331 134° Southeast 148 170 7,000  Level Jacksonville Center
07:49PM 31.6114 -85.6981 138° Southeast 148 170 7,000  Level Jacksonville Center
07:50PM 31.5828 -85.6678 138° Southeast 150 173 7,000  Level Jacksonville Center
07:51PM 31.5525 -85.6303 133° Southeast 152 175 7,000  Level Jacksonville Center
07:52PM 31.5219 -85.5953 136° Southeast 152 175 7,000  Level Jacksonville Center
07:53PM 31.4892 -85.5628 140° Southeast 152 175 7,000  Level Jacksonville Center
07:54PM 31.4567 -85.5228 134° Southeast 157 181 7,000  Level Jacksonville Center
07:55PM 31.4258 -85.4903 138° Southeast 157 181 7,000  Level Jacksonville Center
07:56PM 31.3953 -85.4531 134° Southeast 156 180 7,000  Level Jacksonville Center
07:57PM 31.3625 -85.4181 138° Southeast 156 180 7,000  Level Jacksonville Center
07:58PM 31.3300 -85.3856 139° Southeast 155 178 7,000  Level Jacksonville Center
07:59PM 31.2972 -85.3481 136° Southeast 155 178 7,000  Level Jacksonville Center
08:00PM 31.2644 -85.3108 136° Southeast 158 182 7,000  Level Jacksonville Center
08:01PM 31.2319 -85.2736 136° Southeast 156 180 7,000  Level Jacksonville Center
08:02PM 31.2011 -85.2436 140° Southeast 155 178 7,000  Level Jacksonville Center
08:03PM 31.1725 -85.2114 136° Southeast 156 180 7,000 -60 Level Jacksonville Center
08:04PM 31.1397 -85.1742 136° Southeast 155 178 6,900  Descending Jacksonville Center
08:05PM 31.1089 -85.1442 140° Southeast 153 176 7,000  Climbing Jacksonville Center
08:06PM 31.0761 -85.1072 136° Southeast 151 174 7,000  Level Jacksonville Center
08:08PM 31.0454 -85.0680 132° Southeast  Level FlightAware Approximate
08:15PM 30.8509 -84.8297 137° Southeast  Level FlightAware Approximate
08:16PM 30.8216 -84.7977 137° Southeast  Level FlightAware Approximate
08:17PM 30.7923 -84.7657 137° Southeast  Level FlightAware Approximate
08:18PM 30.7629 -84.7337 137° Southeast  Level FlightAware Approximate
08:19PM 30.7336 -84.7018 137° Southeast  Level FlightAware Approximate
08:20PM 30.7038 -84.6704 139° Southeast  Level FlightAware Approximate
08:21PM 30.6733 -84.6400 139° Southeast  Level FlightAware Approximate
08:22PM 30.6429 -84.6095 139° Southeast  Level FlightAware Approximate
08:23PM 30.6128 -84.5787 134° Southeast  Level FlightAware Approximate
08:24PM 30.5848 -84.5451 134° Southeast  Level FlightAware Approximate
08:25PM 30.5569 -84.5116 134° Southeast  Level FlightAware Approximate
08:26PM 30.5286 -84.4786 139° Southeast  Level FlightAware Approximate
08:27PM 30.4981 -84.4481 139° Southeast  Level FlightAware Approximate
08:28PM 30.4677 -84.4177 139° Southeast  Level FlightAware Approximate
08:29PM 30.4359 -84.3894 147° Southeast  Level FlightAware Approximate
08:30PM 30.4021 -84.3641 147° Southeast  Level FlightAware Approximate
08:31PM 30.3967 -84.3509 147° Southeast  Level Estimated
08:32PM 30.3967 -84.3509 177° South  Level Estimated
08:33PM 30.3967 -84.3509 147° Southeast  Level Estimated
08:34PM 30.3967 -84.3509 177° South  Level Estimated
08:35PM 30.3967 -84.3509 147° Southeast  Level Estimated
08:36PM 30.3967 -84.3509 177° South  Level Estimated
08:37PM 30.3967 -84.3509 147° Southeast  Level Estimated
08:38PM 30.3967 -84.3509 177° South  Level Estimated
08:39PM 30.3967 -84.3509 147° Southeast  Level Estimated